Maulden, Kentucky
Current Conditions -  °F | °C
As of 3:53 AM on Sunday 23 Nov 2014 (Local Time) from KLOZ Reporting Station
Scattered Clouds Scattered Clouds  
Wind Chill: 42°   Ceiling: Unl
Heat Index: 44°   Visibility: 10mi
Dew Point: 33°   Wind: 5mph
Humidity: 65%   Direction: 130°SE
Pressure: 30.08"   Gusts: NA
Location:  37.346°N, 83.8503°W
Report Text: KLOZ 230853Z AUTO 13004KT 10SM SCT100 07/01 A3008 RMK AO2 SLP184 T00670006 58013
Loading
Personal Weather Stations






























Interactive Weather Map New forecast layout! Learn more

10-Day Weather Forecast

Advertisements
Track Severe Weather on mobile